Impacts METAR Board INFO
IDs:

KPHX - Phoenix/Sky Harbor, AZ, US

Updated at: 0335 UTC 22 Nov 2017
Potential Impact None Slight Moderate High
Time21/15Z 21/16Z 21/17Z 21/18Z 21/19Z 21/20Z 21/21Z 21/22Z 21/23Z 22/00Z 22/01Z 22/02Z 22/03Z
VIS10 10 10 10 10 10 10 10 10 10 10 10 10
CIG250 250 250 250 250 250 250 250 250 250 250 250 250
CoverBKNBKNBKNBKNBKNBKNBKNBKNBKNBKNBKNBKNBKN
FltCatVFRVFRVFRVFRVFRVFRVFRVFRVFRVFRVFRVFRVFR
WX--------------------------
WDir7013013001600310270300240230260330
WSpd7 3 5 0 3 3 5 4 6 7 3 3 4
WGst-- -- -- -- -- -- -- -- -- -- -- -- --
Raw hourly METARs
KPHX 211451Z 07007KT 10SM FEW220 BKN250 13/00 A3010 RMK AO2 SLP184 T01280000 53020
KPHX 211551Z 13003KT 10SM FEW220 BKN250 16/M01 A3013 RMK AO2 SLP195 T01561011
KPHX 211651Z 13005KT 10SM FEW220 BKN250 18/M01 A3013 RMK AO2 SLP194 T01781011
KPHX 211751Z 00000KT 10SM BKN250 21/M02 A3012 RMK AO2 SLP190 T02061017 10206 20128 50007
KPHX 211851Z 16003KT 10SM BKN250 22/M02 A3010 RMK AO2 SLP181 T02221022
KPHX 211951Z VRB03KT 10SM BKN250 23/M03 A3006 RMK AO2 SLP169 T02331028
KPHX 212051Z 31005KT 10SM BKN250 24/M03 A3005 RMK AO2 SLP164 T02441028 56024
KPHX 212151Z 27004KT 10SM BKN250 BKN290 25/M04 A3004 RMK AO2 SLP160 T02501039
KPHX 212251Z 30006KT 10SM BKN250 BKN290 26/M04 A3003 RMK AO2 SLP159 T02561044
KPHX 212351Z 24007KT 10SM BKN250 BKN290 25/M02 A3003 RMK AO2 SLP159 T02501022 10261 20200 56005
KPHX 220051Z 23003KT 10SM BKN250 BKN290 23/M02 A3004 RMK AO2 SLP161 T02281017
KPHX 220151Z 26003KT 10SM BKN250 BKN290 22/M02 A3005 RMK AO2 SLP166 T02221017
KPHX 220251Z 33004KT 10SM BKN250 23/M01 A3006 RMK AO2 SLP171 T02281011 53010